createdAt,value
2018-08-31T03:54:20.204Z,13.3
2018-08-31T03:55:22.514Z,13.3
2018-08-31T03:56:24.001Z,13.3
2018-08-31T03:57:25.428Z,13.3
2018-08-31T03:58:26.980Z,13.3
2018-08-31T03:59:29.459Z,13.4
2018-08-31T04:00:31.175Z,13.4
2018-08-31T04:01:34.173Z,13.4
2018-08-31T04:02:35.862Z,13.5
2018-08-31T04:03:37.782Z,13.5
2018-08-31T04:04:39.471Z,13.6
2018-08-31T04:05:41.213Z,13.7
2018-08-31T04:06:42.928Z,13.7
2018-08-31T04:07:45.313Z,13.7
2018-08-31T04:08:47.053Z,13.8
2018-08-31T04:09:48.729Z,13.8
2018-08-31T04:10:50.493Z,13.9
2018-08-31T04:11:52.289Z,13.8
2018-08-31T04:12:54.099Z,13.8
2018-08-31T04:13:55.810Z,13.8
2018-08-31T04:14:57.548Z,13.8
2018-08-31T04:15:59.894Z,13.9
2018-08-31T04:17:01.741Z,13.8
2018-08-31T04:18:03.457Z,13.8
2018-08-31T04:19:05.844Z,13.9
2018-08-31T04:20:07.708Z,13.9
2018-08-31T04:21:09.954Z,13.9
2018-08-31T04:22:11.661Z,13.8
2018-08-31T04:23:13.908Z,13.8
2018-08-31T04:24:16.346Z,13.8
2018-08-31T04:25:18.065Z,13.8
2018-08-31T04:26:19.747Z,13.9
2018-08-31T04:27:21.409Z,13.8
2018-08-31T04:28:23.433Z,13.9
2018-08-31T04:29:25.368Z,13.8
2018-08-31T04:30:27.394Z,13.9
2018-08-31T04:31:29.793Z,13.8
2018-08-31T04:32:31.406Z,13.8
2018-08-31T04:33:33.128Z,13.8
2018-08-31T04:34:35.620Z,13.8
2018-08-31T04:35:37.450Z,13.9
2018-08-31T04:36:39.134Z,13.8
2018-08-31T04:37:41.064Z,13.8
2018-08-31T04:38:42.808Z,13.9
2018-08-31T04:39:44.556Z,13.9
2018-08-31T04:40:46.240Z,13.8
2018-08-31T04:41:48.193Z,13.9
2018-08-31T04:42:50.715Z,13.8
2018-08-31T04:43:52.375Z,13.7
2018-08-31T04:44:54.053Z,13.8
2018-08-31T04:45:55.902Z,13.8
2018-08-31T04:46:58.050Z,13.8
2018-08-31T04:48:00.461Z,13.8
2018-08-31T04:49:02.113Z,13.8
2018-08-31T04:50:04.361Z,13.8
2018-08-31T04:51:06.041Z,13.8
2018-08-31T04:52:08.450Z,13.9
2018-08-31T04:53:10.144Z,13.8
2018-08-31T04:54:11.811Z,13.8
2018-08-31T04:55:13.568Z,13.8
2018-08-31T04:56:15.182Z,13.9
2018-08-31T04:57:17.862Z,14.0
2018-08-31T04:58:19.386Z,13.9
2018-08-31T04:59:21.854Z,13.8
2018-08-31T05:00:23.493Z,13.8
2018-08-31T05:01:25.890Z,13.8
2018-08-31T05:02:27.527Z,13.8
2018-08-31T05:03:29.185Z,13.9
2018-08-31T05:04:30.942Z,13.9
2018-08-31T05:05:33.751Z,13.8
2018-08-31T05:06:35.671Z,13.9
2018-08-31T05:07:37.566Z,14.0
2018-08-31T05:08:39.468Z,14.0
2018-08-31T05:09:42.325Z,14.0
2018-08-31T05:10:43.863Z,13.9
2018-08-31T05:11:45.592Z,14.0
2018-08-31T05:12:47.274Z,14.0
2018-08-31T05:13:49.013Z,14.1
2018-08-31T05:14:50.710Z,14.1
2018-08-31T05:15:52.412Z,14.1
2018-08-31T05:16:55.204Z,14.2
2018-08-31T05:17:57.075Z,14.2
2018-08-31T05:18:58.998Z,14.2
2018-08-31T05:20:00.969Z,14.3
2018-08-31T05:21:02.663Z,14.2
2018-08-31T05:22:04.402Z,14.2
2018-08-31T05:23:06.197Z,14.3
2018-08-31T05:24:08.794Z,14.2
2018-08-31T05:25:11.247Z,14.4
2018-08-31T05:26:13.026Z,14.4
2018-08-31T05:27:15.165Z,14.4
2018-08-31T05:28:16.872Z,14.5
2018-08-31T05:29:18.849Z,14.4
2018-08-31T05:30:20.595Z,14.5
2018-08-31T05:31:22.632Z,14.4
2018-08-31T05:32:25.181Z,14.4
2018-08-31T05:33:26.902Z,14.5
2018-08-31T05:34:28.531Z,14.5
2018-08-31T05:35:30.267Z,14.5
2018-08-31T05:36:32.043Z,14.5
2018-08-31T05:37:33.672Z,14.6
2018-08-31T05:38:35.439Z,14.6
2018-08-31T05:39:37.541Z,14.6
2018-08-31T05:40:39.528Z,14.6
2018-08-31T05:41:41.236Z,14.7
2018-08-31T05:42:43.314Z,14.8
2018-08-31T05:43:44.960Z,14.8
2018-08-31T05:44:46.973Z,14.8
2018-08-31T05:45:48.649Z,14.8
2018-08-31T05:46:50.773Z,14.8
2018-08-31T05:47:52.823Z,14.8
2018-08-31T05:48:54.743Z,14.8
2018-08-31T05:49:56.637Z,14.9
2018-08-31T05:50:58.385Z,14.9
2018-08-31T05:52:00.184Z,14.9
2018-08-31T05:53:02.012Z,15.0
2018-08-31T05:54:03.773Z,15.1
2018-08-31T05:55:05.760Z,15.1
2018-08-31T05:56:07.483Z,15.2
2018-08-31T05:57:09.230Z,15.1
2018-08-31T05:58:10.916Z,15.2
2018-08-31T05:59:12.648Z,15.2
2018-08-31T06:00:14.532Z,15.3
2018-08-31T06:01:16.231Z,15.2
2018-08-31T06:02:18.268Z,15.2
2018-08-31T06:03:19.946Z,15.3
2018-08-31T06:04:21.927Z,15.3
2018-08-31T06:05:23.972Z,15.5
2018-08-31T06:06:26.146Z,15.5
2018-08-31T06:07:27.829Z,15.6
2018-08-31T06:08:29.580Z,15.7
2018-08-31T06:09:31.667Z,15.6
2018-08-31T06:10:33.473Z,15.6
2018-08-31T06:11:35.734Z,15.7
2018-08-31T06:12:37.574Z,15.8
2018-08-31T06:13:39.590Z,15.9
2018-08-31T06:14:41.599Z,15.9
2018-08-31T06:15:43.625Z,16.0
2018-08-31T06:16:45.394Z,16.0
2018-08-31T06:17:47.525Z,16.0
2018-08-31T06:18:49.214Z,16.0
2018-08-31T06:19:50.906Z,16.1
2018-08-31T06:20:52.759Z,16.0
2018-08-31T06:21:54.859Z,16.0
2018-08-31T06:22:56.993Z,16.1
2018-08-31T06:23:58.863Z,16.1
2018-08-31T06:25:00.993Z,16.0
2018-08-31T06:26:02.646Z,16.0
2018-08-31T06:27:04.426Z,16.1
2018-08-31T06:28:06.200Z,16.2
2018-08-31T06:29:08.236Z,16.1
2018-08-31T06:30:10.073Z,16.2
2018-08-31T06:31:12.083Z,16.3
2018-08-31T06:32:13.832Z,16.5
2018-08-31T06:33:15.718Z,16.5
2018-08-31T06:34:17.657Z,16.6
2018-08-31T06:35:19.739Z,16.6
2018-08-31T06:36:21.758Z,16.5
2018-08-31T06:37:23.737Z,16.5
2018-08-31T06:38:25.447Z,16.5
2018-08-31T06:39:27.225Z,16.6
2018-08-31T06:40:29.089Z,16.5
2018-08-31T06:41:30.727Z,16.6
2018-08-31T06:42:32.781Z,16.7
2018-08-31T06:43:34.616Z,16.5
2018-08-31T06:44:36.807Z,16.6
2018-08-31T06:45:38.895Z,16.6
2018-08-31T06:46:40.980Z,16.7
2018-08-31T06:47:43.001Z,16.7
2018-08-31T06:48:44.720Z,16.8
2018-08-31T06:49:46.468Z,16.8
2018-08-31T06:50:48.515Z,16.9
2018-08-31T06:51:50.662Z,17.0
2018-08-31T06:52:52.853Z,17.1
2018-08-31T06:53:55.058Z,17.1
2018-08-31T06:54:56.739Z,17.2
2018-08-31T06:55:58.723Z,17.3
2018-08-31T06:57:00.408Z,17.2
2018-08-31T06:58:02.187Z,17.3
2018-08-31T06:59:04.128Z,17.3
2018-08-31T07:00:05.819Z,17.3
2018-08-31T07:01:07.960Z,17.3
2018-08-31T07:02:10.110Z,17.5
2018-08-31T07:03:12.635Z,17.4
2018-08-31T07:04:14.830Z,17.5
2018-08-31T07:05:16.951Z,17.6
2018-08-31T07:06:19.125Z,17.6
2018-08-31T07:07:21.242Z,17.8
2018-08-31T07:08:22.891Z,17.9
2018-08-31T07:09:25.120Z,18.0
2018-08-31T07:10:26.910Z,18.1
2018-08-31T07:11:28.935Z,18.1
2018-08-31T07:12:30.783Z,18.2
2018-08-31T07:13:33.066Z,18.3
2018-08-31T07:14:34.866Z,18.4
2018-08-31T07:15:37.226Z,18.5
2018-08-31T07:16:39.293Z,18.5
2018-08-31T07:17:41.080Z,18.6
2018-08-31T07:18:43.464Z,18.6
2018-08-31T07:19:46.452Z,18.7
2018-08-31T07:20:47.965Z,18.8
2018-08-31T07:21:49.859Z,18.9
2018-08-31T07:22:51.979Z,18.9
2018-08-31T07:23:54.257Z,19.0
2018-08-31T07:24:56.432Z,19.2
2018-08-31T07:25:58.195Z,19.1
2018-08-31T07:27:00.240Z,19.1
2018-08-31T07:28:02.703Z,19.1
2018-08-31T07:29:04.657Z,19.0
2018-08-31T07:30:06.416Z,19.0
2018-08-31T07:31:08.753Z,18.9
2018-08-31T07:32:11.099Z,19.0
2018-08-31T07:33:12.872Z,19.0
2018-08-31T07:34:14.622Z,19.1
2018-08-31T07:35:16.832Z,19.2
2018-08-31T07:36:18.862Z,19.2
2018-08-31T07:37:20.480Z,19.3
2018-08-31T07:38:22.229Z,19.4
2018-08-31T07:39:24.485Z,19.6
2018-08-31T07:40:26.616Z,19.7
2018-08-31T07:41:28.803Z,19.8
2018-08-31T07:42:31.157Z,20.0
2018-08-31T07:43:33.299Z,19.9
2018-08-31T07:44:36.011Z,19.9
2018-08-31T07:45:38.299Z,19.8
2018-08-31T07:46:40.218Z,19.8
2018-08-31T07:47:42.410Z,19.8
2018-08-31T07:48:44.104Z,19.9
2018-08-31T07:49:46.246Z,19.8
2018-08-31T07:50:48.457Z,19.8
2018-08-31T07:51:50.421Z,19.8
2018-08-31T07:52:52.913Z,19.9
2018-08-31T07:53:54.689Z,19.8
2018-08-31T07:54:57.000Z,19.8
2018-08-31T07:55:58.858Z,19.8
2018-08-31T07:57:01.052Z,19.9
2018-08-31T07:58:03.284Z,19.8
2018-08-31T07:59:05.432Z,20.0
2018-08-31T08:00:07.219Z,20.1
2018-08-31T08:01:09.425Z,20.3
2018-08-31T08:02:11.271Z,20.5
2018-08-31T08:03:13.075Z,20.8
2018-08-31T08:04:14.844Z,20.9
2018-08-31T08:05:17.264Z,21.2
2018-08-31T08:06:19.062Z,21.3
2018-08-31T08:07:20.885Z,21.5
2018-08-31T08:08:22.679Z,21.7
2018-08-31T08:09:25.018Z,22.0
2018-08-31T08:10:27.178Z,22.1
2018-08-31T08:11:29.500Z,22.4
2018-08-31T08:12:31.242Z,22.4
2018-08-31T08:13:33.524Z,22.5
2018-08-31T08:14:35.793Z,22.4
2018-08-31T08:15:38.127Z,22.7
2018-08-31T08:16:39.873Z,23.1
2018-08-31T08:17:41.616Z,23.2
2018-08-31T08:18:43.416Z,23.3
2018-08-31T08:19:45.710Z,23.6
2018-08-31T08:20:47.807Z,23.5
2018-08-31T08:21:50.035Z,23.5
2018-08-31T08:22:52.184Z,23.5
2018-08-31T08:23:54.027Z,23.7
2018-08-31T08:24:56.224Z,23.8
2018-08-31T08:25:58.410Z,23.7
2018-08-31T08:27:00.144Z,24.0
2018-08-31T08:28:01.839Z,24.0
2018-08-31T08:29:04.047Z,24.2
2018-08-31T08:30:05.805Z,24.3
2018-08-31T08:31:07.565Z,24.6
2018-08-31T08:32:09.702Z,24.7
2018-08-31T08:33:11.418Z,24.8
2018-08-31T08:34:13.620Z,24.4
2018-08-31T08:35:15.674Z,24.6
2018-08-31T08:36:17.451Z,24.6
2018-08-31T08:37:19.186Z,24.8
2018-08-31T08:38:21.036Z,24.9
2018-08-31T08:39:22.842Z,25.1
2018-08-31T08:40:24.592Z,25.1
2018-08-31T08:41:26.873Z,25.1
2018-08-31T08:42:28.891Z,25.1
2018-08-31T08:43:30.868Z,25.0
2018-08-31T08:44:32.662Z,25.4
2018-08-31T08:45:34.468Z,25.6
2018-08-31T08:46:36.654Z,25.8
2018-08-31T08:47:38.626Z,26.1
2018-08-31T08:48:40.779Z,26.4
2018-08-31T08:49:42.777Z,26.6
2018-08-31T08:50:44.539Z,26.7
2018-08-31T08:51:46.430Z,27.0
2018-08-31T08:52:48.145Z,27.1
2018-08-31T08:53:50.108Z,26.8
2018-08-31T08:54:52.388Z,27.3
2018-08-31T08:55:54.241Z,27.6
2018-08-31T08:56:56.324Z,27.8
2018-08-31T08:57:58.095Z,27.8
2018-08-31T08:59:00.665Z,27.8
2018-08-31T09:00:02.438Z,27.2
2018-08-31T09:01:04.799Z,27.1
2018-08-31T09:02:07.335Z,26.8
2018-08-31T09:03:09.017Z,26.8
2018-08-31T09:04:10.759Z,26.9
2018-08-31T09:05:12.879Z,26.7
2018-08-31T09:06:14.962Z,26.9
2018-08-31T09:07:16.816Z,26.5
2018-08-31T09:08:18.832Z,26.4
2018-08-31T09:09:20.600Z,26.2
2018-08-31T09:10:22.363Z,26.2
2018-08-31T09:11:24.207Z,25.8
2018-08-31T09:12:26.101Z,26.5
2018-08-31T09:13:27.683Z,26.6
2018-08-31T09:14:29.540Z,26.4
2018-08-31T09:15:31.260Z,26.2
2018-08-31T09:16:33.306Z,26.2
2018-08-31T09:17:35.124Z,26.2
2018-08-31T09:18:37.412Z,26.0
2018-08-31T09:19:39.661Z,25.8
2018-08-31T09:20:41.302Z,25.4
2018-08-31T09:21:42.972Z,25.6
2018-08-31T09:22:45.023Z,25.5
2018-08-31T09:23:46.710Z,25.2
2018-08-31T09:24:48.592Z,25.1
2018-08-31T09:25:51.350Z,25.0
2018-08-31T09:26:53.243Z,24.6
2018-08-31T09:27:55.137Z,24.8
2018-08-31T09:28:56.859Z,24.9
2018-08-31T09:29:59.345Z,25.4
2018-08-31T09:31:01.145Z,25.8
2018-08-31T09:32:03.117Z,26.1
2018-08-31T09:33:04.858Z,26.5
2018-08-31T09:34:07.063Z,26.7
2018-08-31T09:35:08.906Z,27.0
2018-08-31T09:36:11.632Z,27.3
2018-08-31T09:37:13.920Z,27.2
2018-08-31T09:38:15.622Z,26.6
2018-08-31T09:39:17.607Z,26.4
2018-08-31T09:40:20.222Z,26.5
2018-08-31T09:41:21.785Z,27.0
2018-08-31T09:42:24.457Z,27.3
2018-08-31T09:43:26.475Z,27.5
2018-08-31T09:44:28.383Z,27.7
2018-08-31T09:45:30.284Z,27.7
2018-08-31T09:46:32.594Z,27.9
2018-08-31T09:47:34.429Z,28.1
2018-08-31T09:48:36.403Z,28.6
2018-08-31T09:49:38.157Z,28.6
2018-08-31T09:50:40.853Z,28.6
2018-08-31T09:51:42.648Z,29.0
2018-08-31T09:52:45.123Z,28.7
2018-08-31T09:53:47.235Z,29.1
2018-08-31T09:54:49.272Z,29.3
2018-08-31T09:55:51.173Z,29.4
2018-08-31T09:56:53.644Z,29.4
2018-08-31T09:57:55.522Z,29.4
2018-08-31T09:58:58.138Z,29.4
2018-08-31T09:59:59.927Z,29.5
2018-08-31T10:01:01.670Z,29.7
2018-08-31T10:02:04.086Z,29.4
2018-08-31T10:03:06.434Z,29.5
2018-08-31T10:04:08.282Z,29.4
2018-08-31T10:05:10.538Z,29.0
2018-08-31T10:06:12.306Z,28.8
2018-08-31T10:07:14.052Z,29.0
2018-08-31T10:08:16.513Z,28.7
2018-08-31T10:09:18.760Z,28.6
2018-08-31T10:10:21.405Z,28.0
2018-08-31T10:11:23.091Z,28.4
2018-08-31T10:12:25.009Z,28.3
2018-08-31T10:13:26.778Z,28.8
2018-08-31T10:14:28.603Z,29.0
2018-08-31T10:15:30.519Z,29.1
2018-08-31T10:16:32.290Z,29.3
2018-08-31T10:17:34.355Z,29.3
2018-08-31T10:18:36.161Z,28.6
2018-08-31T10:19:38.491Z,28.3
2018-08-31T10:20:40.563Z,28.5
2018-08-31T10:21:42.561Z,28.5
2018-08-31T10:22:44.511Z,28.9
2018-08-31T10:23:46.159Z,29.1
2018-08-31T10:24:47.944Z,29.0
2018-08-31T10:25:49.746Z,29.1
2018-08-31T10:26:51.649Z,29.0
2018-08-31T10:27:54.078Z,28.7
2018-08-31T10:28:55.827Z,28.8
2018-08-31T10:29:57.623Z,28.7
2018-08-31T10:30:59.447Z,28.5
2018-08-31T10:32:01.807Z,28.1
2018-08-31T10:33:03.925Z,27.8
2018-08-31T10:34:05.693Z,27.8
2018-08-31T10:35:07.432Z,27.4
2018-08-31T10:36:09.194Z,27.5
2018-08-31T10:37:11.114Z,27.5
2018-08-31T10:38:12.944Z,27.5
2018-08-31T10:39:15.159Z,27.1
2018-08-31T10:40:16.962Z,26.9
2018-08-31T10:41:19.180Z,26.8
2018-08-31T10:42:22.159Z,26.7
2018-08-31T10:43:24.293Z,26.5
2018-08-31T10:44:26.736Z,26.3
2018-08-31T10:45:28.681Z,26.2
2018-08-31T10:46:31.219Z,26.0
2018-08-31T10:47:32.880Z,26.1
2018-08-31T10:48:34.878Z,25.9
2018-08-31T10:49:36.850Z,25.4
2018-08-31T10:50:38.636Z,25.4
2018-08-31T10:51:41.350Z,25.5
2018-08-31T10:52:43.327Z,25.5
2018-08-31T10:53:45.828Z,25.5
2018-08-31T10:54:48.286Z,25.6
2018-08-31T10:55:50.036Z,25.8
2018-08-31T10:56:51.985Z,26.0
2018-08-31T10:57:54.835Z,26.1
2018-08-31T10:58:57.590Z,26.5
2018-08-31T10:59:59.417Z,26.5
2018-08-31T11:01:01.969Z,26.5
2018-08-31T11:02:03.809Z,26.4
2018-08-31T11:03:06.271Z,26.4
2018-08-31T11:04:08.141Z,26.2
2018-08-31T11:05:10.777Z,26.1
2018-08-31T11:06:13.472Z,25.8
2018-08-31T11:07:15.716Z,25.4
2018-08-31T11:08:17.997Z,25.3
2018-08-31T11:09:19.847Z,25.3
2018-08-31T11:10:22.218Z,25.1
2018-08-31T11:11:24.373Z,24.9
2018-08-31T11:12:26.699Z,24.8
2018-08-31T11:13:28.447Z,24.6
2018-08-31T11:14:30.474Z,24.7
2018-08-31T11:15:32.379Z,24.6
2018-08-31T11:16:34.263Z,24.4
2018-08-31T11:17:36.557Z,24.5
2018-08-31T11:18:38.425Z,24.3
2018-08-31T11:19:40.470Z,24.2
2018-08-31T11:20:42.213Z,24.2
2018-08-31T11:21:44.187Z,24.1
2018-08-31T11:22:45.918Z,24.2
2018-08-31T11:23:47.698Z,24.2
2018-08-31T11:24:49.443Z,24.1
2018-08-31T11:25:51.629Z,24.0
2018-08-31T11:26:53.334Z,24.0
2018-08-31T11:27:55.666Z,24.1
2018-08-31T11:28:57.673Z,24.1
2018-08-31T11:29:59.570Z,24.2
2018-08-31T11:31:02.053Z,24.1
2018-08-31T11:32:04.370Z,24.0
2018-08-31T11:33:06.585Z,23.9
2018-08-31T11:34:08.543Z,23.8
2018-08-31T11:35:11.193Z,23.6
2018-08-31T11:36:13.212Z,23.4
2018-08-31T11:37:15.905Z,23.5
2018-08-31T11:38:17.668Z,23.6
2018-08-31T11:39:20.379Z,23.7
2018-08-31T11:40:22.721Z,23.8
2018-08-31T11:41:25.106Z,23.9
2018-08-31T11:42:26.812Z,24.1
2018-08-31T11:43:28.645Z,24.4
2018-08-31T11:44:30.467Z,24.7
2018-08-31T11:45:32.852Z,25.0
2018-08-31T11:46:34.727Z,25.3
2018-08-31T11:47:37.293Z,25.8
2018-08-31T11:48:39.132Z,26.0
2018-08-31T11:49:41.889Z,26.2
2018-08-31T11:50:44.413Z,26.3
2018-08-31T11:51:46.240Z,26.3
2018-08-31T11:52:49.048Z,26.3
2018-08-31T11:53:51.502Z,26.4
2018-08-31T11:54:53.773Z,26.7
2018-08-31T11:55:55.649Z,26.9
2018-08-31T11:56:57.522Z,27.2
2018-08-31T11:57:59.516Z,27.3
2018-08-31T11:59:01.425Z,27.7
2018-08-31T12:00:03.263Z,27.9
2018-08-31T12:01:05.228Z,28.1
2018-08-31T12:02:07.274Z,28.1
2018-08-31T12:03:09.033Z,28.1
2018-08-31T12:04:11.000Z,28.1
2018-08-31T12:05:12.770Z,27.8
2018-08-31T12:06:14.683Z,28.1
2018-08-31T12:07:16.716Z,28.2
2018-08-31T12:08:18.506Z,28.4
2018-08-31T12:09:20.561Z,28.3
2018-08-31T12:10:22.324Z,28.3
2018-08-31T12:11:24.294Z,27.9
2018-08-31T12:12:26.564Z,28.0
2018-08-31T12:13:28.707Z,28.4
2018-08-31T12:14:30.686Z,28.6
2018-08-31T12:15:32.564Z,28.7
2018-08-31T12:16:35.163Z,28.7
2018-08-31T12:17:36.997Z,28.6
2018-08-31T12:18:38.842Z,28.0
2018-08-31T12:19:40.708Z,28.1
2018-08-31T12:20:42.677Z,28.0
2018-08-31T12:21:44.561Z,27.9
2018-08-31T12:22:46.362Z,27.7
2018-08-31T12:23:48.250Z,27.6
2018-08-31T12:24:50.327Z,27.4
2018-08-31T12:25:52.210Z,27.2
2018-08-31T12:26:54.570Z,27.1
2018-08-31T12:27:56.378Z,26.6
2018-08-31T12:28:58.373Z,26.6
2018-08-31T12:30:01.106Z,26.5
2018-08-31T12:31:03.638Z,26.6
2018-08-31T12:32:05.701Z,26.6
2018-08-31T12:33:07.536Z,26.5
2018-08-31T12:34:09.602Z,26.6
2018-08-31T12:35:11.722Z,26.9
2018-08-31T12:36:14.003Z,27.2
2018-08-31T12:37:15.891Z,27.5
2018-08-31T12:38:17.778Z,27.5
2018-08-31T12:39:19.557Z,27.9
2018-08-31T12:40:21.480Z,27.9
2018-08-31T12:41:23.398Z,27.8
2018-08-31T12:42:25.921Z,27.6
2018-08-31T12:43:27.658Z,27.4
2018-08-31T12:44:29.863Z,27.4
2018-08-31T12:45:31.676Z,27.3
2018-08-31T12:46:33.599Z,27.2
2018-08-31T12:47:35.419Z,27.0
2018-08-31T12:48:37.741Z,26.6
2018-08-31T12:49:39.385Z,26.5
2018-08-31T12:50:41.633Z,26.5
2018-08-31T12:51:43.949Z,26.4
2018-08-31T12:52:46.075Z,26.4
2018-08-31T12:53:48.392Z,26.2
2018-08-31T12:54:50.412Z,26.3
2018-08-31T12:55:52.679Z,26.3
2018-08-31T12:56:54.959Z,26.1
2018-08-31T12:57:56.794Z,26.0
2018-08-31T12:58:58.876Z,26.1
2018-08-31T13:00:00.979Z,26.0
2018-08-31T13:01:02.922Z,26.0
2018-08-31T13:02:04.863Z,25.9
2018-08-31T13:03:07.320Z,26.2
2018-08-31T13:04:09.185Z,26.1
2018-08-31T13:05:10.985Z,26.2
2018-08-31T13:06:13.060Z,26.5
2018-08-31T13:07:15.088Z,27.0
2018-08-31T13:08:17.289Z,27.2
2018-08-31T13:09:19.036Z,27.4
2018-08-31T13:10:21.062Z,27.7
2018-08-31T13:11:22.875Z,27.8
2018-08-31T13:12:24.886Z,28.1
2018-08-31T13:13:27.582Z,28.2
2018-08-31T13:14:29.860Z,28.2
2018-08-31T13:15:31.790Z,28.3
2018-08-31T13:16:33.872Z,28.2
2018-08-31T13:17:35.923Z,28.2
2018-08-31T13:18:37.888Z,28.2
2018-08-31T13:19:40.515Z,28.4
2018-08-31T13:20:42.707Z,28.5
2018-08-31T13:21:44.685Z,28.4
2018-08-31T13:22:46.724Z,28.5
2018-08-31T13:23:48.793Z,28.6
2018-08-31T13:24:50.786Z,28.8
2018-08-31T13:25:52.610Z,28.8
2018-08-31T13:26:55.071Z,29.0
2018-08-31T13:27:57.053Z,29.1
2018-08-31T13:28:59.211Z,29.2
2018-08-31T13:30:01.137Z,29.1
2018-08-31T13:31:03.706Z,29.0
2018-08-31T13:32:05.406Z,28.8
2018-08-31T13:33:07.815Z,28.7
2018-08-31T13:34:09.983Z,28.7
2018-08-31T13:35:11.800Z,28.6
2018-08-31T13:36:13.898Z,28.4
2018-08-31T13:37:15.704Z,27.9
2018-08-31T13:38:17.665Z,28.2
2018-08-31T13:39:19.750Z,28.2
2018-08-31T13:40:21.561Z,28.2
2018-08-31T13:41:23.488Z,28.2
2018-08-31T13:42:25.635Z,28.3
2018-08-31T13:43:27.903Z,28.2
2018-08-31T13:44:30.262Z,28.4
2018-08-31T13:45:34.122Z,28.1
2018-08-31T13:46:35.759Z,28.0
2018-08-31T13:47:37.897Z,27.8
2018-08-31T13:48:39.688Z,27.8
2018-08-31T13:49:41.826Z,27.7
2018-08-31T13:50:43.684Z,27.8
2018-08-31T13:51:45.706Z,27.7
2018-08-31T13:52:47.906Z,27.7
2018-08-31T13:53:49.672Z,27.7
2018-08-31T13:54:51.989Z,27.6
2018-08-31T13:55:53.890Z,27.4
2018-08-31T13:56:55.889Z,27.1
2018-08-31T13:57:58.038Z,27.1
2018-08-31T13:59:00.506Z,27.1
2018-08-31T14:00:02.442Z,26.9
2018-08-31T14:01:04.395Z,26.7
2018-08-31T14:02:06.256Z,26.7
2018-08-31T14:03:08.228Z,26.5
2018-08-31T14:04:10.489Z,26.5
2018-08-31T14:05:12.642Z,26.2
2018-08-31T14:06:14.426Z,26.1
2018-08-31T14:07:16.224Z,26.0
2018-08-31T14:08:18.235Z,26.1
2018-08-31T14:09:20.371Z,26.2
2018-08-31T14:10:22.798Z,26.2
2018-08-31T14:11:24.604Z,26.1
2018-08-31T14:12:26.713Z,26.0
2018-08-31T14:13:28.650Z,26.1
2018-08-31T14:14:31.191Z,26.2
2018-08-31T14:15:33.220Z,26.0
2018-08-31T14:16:34.961Z,26.0
2018-08-31T14:17:37.029Z,26.1
2018-08-31T14:18:39.286Z,26.1
2018-08-31T14:19:41.383Z,26.0
2018-08-31T14:20:43.249Z,25.9
2018-08-31T14:21:45.608Z,26.1
2018-08-31T14:22:47.278Z,26.0
2018-08-31T14:23:49.005Z,26.2
2018-08-31T14:24:50.800Z,26.3
2018-08-31T14:25:52.578Z,26.3
2018-08-31T14:26:54.128Z,26.4
2018-08-31T14:27:55.789Z,26.4
2018-08-31T14:28:57.838Z,26.0
2018-08-31T14:29:59.667Z,26.1
2018-08-31T14:31:01.415Z,26.0
2018-08-31T14:32:03.225Z,26.0
2018-08-31T14:33:05.012Z,26.0
2018-08-31T14:34:07.064Z,26.1
2018-08-31T14:35:08.957Z,26.0
2018-08-31T14:36:10.687Z,25.7
2018-08-31T14:37:12.553Z,25.9
2018-08-31T14:38:14.332Z,26.2
2018-08-31T14:39:16.094Z,26.2
2018-08-31T14:40:17.885Z,26.2
2018-08-31T14:41:19.681Z,26.4
2018-08-31T14:42:21.468Z,26.3
2018-08-31T14:43:23.171Z,26.4
2018-08-31T14:44:24.986Z,26.4
2018-08-31T14:45:26.821Z,26.5
2018-08-31T14:46:28.611Z,26.7
2018-08-31T14:47:30.416Z,26.7
2018-08-31T14:48:32.224Z,26.8
2018-08-31T14:49:34.148Z,26.9
2018-08-31T14:50:35.765Z,26.7
2018-08-31T14:51:37.424Z,26.8
2018-08-31T14:52:38.932Z,26.8
2018-08-31T14:53:40.800Z,26.8
2018-08-31T14:54:42.621Z,26.7
2018-08-31T14:55:44.398Z,26.8
2018-08-31T14:56:46.225Z,26.6
2018-08-31T14:57:47.880Z,26.8
2018-08-31T14:58:49.684Z,26.7
2018-08-31T14:59:51.416Z,26.8
2018-08-31T15:00:53.208Z,26.7
2018-08-31T15:01:55.075Z,26.7
2018-08-31T15:02:56.854Z,26.8
2018-08-31T15:03:58.788Z,26.7
2018-08-31T15:05:00.464Z,26.6
2018-08-31T15:06:02.267Z,26.6
2018-08-31T15:07:03.921Z,26.6
2018-08-31T15:08:05.951Z,26.7
2018-08-31T15:09:07.664Z,26.4
2018-08-31T15:10:09.577Z,26.4
2018-08-31T15:11:11.343Z,26.3
2018-08-31T15:12:13.074Z,26.0
2018-08-31T15:13:14.985Z,26.1
2018-08-31T15:14:16.798Z,26.1
2018-08-31T15:15:18.563Z,26.1
2018-08-31T15:16:20.331Z,26.2
2018-08-31T15:17:22.205Z,26.1
2018-08-31T15:18:24.058Z,26.2
2018-08-31T15:19:25.876Z,26.2
2018-08-31T15:20:27.643Z,26.1
2018-08-31T15:21:29.394Z,26.1
2018-08-31T15:22:31.123Z,26.0
2018-08-31T15:23:33.054Z,25.8
2018-08-31T15:24:34.750Z,25.7
2018-08-31T15:25:36.653Z,25.9
2018-08-31T15:26:38.267Z,25.9
2018-08-31T15:27:40.013Z,25.9
2018-08-31T15:28:41.768Z,25.9
2018-08-31T15:29:43.596Z,26.0
2018-08-31T15:30:45.376Z,25.8
2018-08-31T15:31:47.368Z,25.6
2018-08-31T15:32:49.123Z,25.6
2018-08-31T15:33:50.987Z,25.6
2018-08-31T15:34:52.764Z,25.6
2018-08-31T15:35:54.604Z,25.6
2018-08-31T15:36:56.407Z,25.5
2018-08-31T15:37:58.036Z,25.5
2018-08-31T15:38:59.887Z,25.3
2018-08-31T15:40:01.682Z,25.2
2018-08-31T15:41:03.443Z,25.1
2018-08-31T15:42:05.260Z,25.2
2018-08-31T15:43:06.843Z,25.0
2018-08-31T15:44:08.665Z,25.0
2018-08-31T15:45:10.432Z,25.0
2018-08-31T15:46:12.187Z,24.9
2018-08-31T15:47:13.964Z,24.8
2018-08-31T15:48:15.716Z,24.8
2018-08-31T15:49:17.473Z,24.6
2018-08-31T15:50:19.165Z,24.5
2018-08-31T15:51:20.991Z,24.5
2018-08-31T15:52:22.769Z,24.3
2018-08-31T15:53:24.404Z,24.1
2018-08-31T15:54:26.124Z,23.9
2018-08-31T15:55:27.846Z,23.8
2018-08-31T15:56:29.702Z,24.0
2018-08-31T15:57:31.410Z,23.9
2018-08-31T15:58:33.184Z,23.7
2018-08-31T15:59:34.907Z,23.8
2018-08-31T16:00:36.727Z,23.8
2018-08-31T16:01:38.442Z,23.7
2018-08-31T16:02:40.218Z,23.8
2018-08-31T16:03:41.888Z,23.8
2018-08-31T16:04:43.785Z,23.8
2018-08-31T16:05:45.458Z,23.8
2018-08-31T16:06:47.253Z,23.7
2018-08-31T16:07:49.058Z,23.7
2018-08-31T16:08:50.981Z,23.7
2018-08-31T16:09:52.707Z,23.7
2018-08-31T16:10:54.456Z,23.6
2018-08-31T16:11:56.202Z,23.5
2018-08-31T16:12:58.073Z,23.4
2018-08-31T16:13:59.800Z,23.2
2018-08-31T16:15:01.581Z,23.1
2018-08-31T16:16:03.390Z,23.1
2018-08-31T16:17:05.049Z,22.9
2018-08-31T16:18:06.717Z,22.8
2018-08-31T16:19:08.601Z,22.6
2018-08-31T16:20:10.426Z,22.6
2018-08-31T16:21:12.230Z,22.6
2018-08-31T16:22:14.036Z,22.6
2018-08-31T16:23:15.713Z,22.6
2018-08-31T16:24:17.501Z,22.6
2018-08-31T16:25:19.353Z,22.5
2018-08-31T16:26:21.120Z,22.6
2018-08-31T16:27:23.033Z,22.6
2018-08-31T16:28:25.344Z,22.5
2018-08-31T16:29:27.208Z,22.6
2018-08-31T16:30:29.359Z,22.6
2018-08-31T16:31:31.303Z,22.5
2018-08-31T16:32:33.040Z,22.5
2018-08-31T16:33:35.059Z,22.3
2018-08-31T16:34:37.159Z,22.3
2018-08-31T16:35:38.847Z,22.3
2018-08-31T16:36:40.627Z,22.2
2018-08-31T16:37:42.696Z,22.2
2018-08-31T16:38:44.500Z,22.2
2018-08-31T16:39:46.168Z,22.3
2018-08-31T16:40:48.244Z,22.2
2018-08-31T16:41:50.884Z,22.2
2018-08-31T16:42:52.809Z,22.2
2018-08-31T16:43:54.633Z,22.1
2018-08-31T16:44:56.414Z,22.2
2018-08-31T16:45:58.188Z,22.2
2018-08-31T16:46:59.876Z,22.1
2018-08-31T16:48:01.702Z,22.1
2018-08-31T16:49:03.490Z,22.2
2018-08-31T16:50:05.602Z,22.1
2018-08-31T16:51:07.357Z,22.1
2018-08-31T16:52:09.276Z,22.0
2018-08-31T16:53:11.481Z,21.9
2018-08-31T16:54:13.217Z,21.9
2018-08-31T16:55:14.949Z,21.9
2018-08-31T16:56:17.144Z,22.0
2018-08-31T16:57:18.970Z,22.0
2018-08-31T16:58:20.681Z,22.1
2018-08-31T16:59:22.791Z,22.1
2018-08-31T17:00:24.497Z,22.1
2018-08-31T17:01:26.422Z,22.1
2018-08-31T17:02:28.633Z,22.1
2018-08-31T17:03:30.754Z,22.1
2018-08-31T17:04:32.466Z,22.1
2018-08-31T17:05:34.288Z,22.1
2018-08-31T17:06:36.540Z,22.0
2018-08-31T17:07:38.600Z,22.0
2018-08-31T17:08:40.765Z,21.9
2018-08-31T17:09:42.579Z,21.8
2018-08-31T17:10:44.361Z,21.7
2018-08-31T17:11:46.230Z,21.8
2018-08-31T17:12:47.949Z,21.8
2018-08-31T17:13:50.438Z,21.7
2018-08-31T17:14:52.423Z,21.6
2018-08-31T17:15:54.414Z,21.4
2018-08-31T17:16:56.740Z,21.4
2018-08-31T17:17:58.366Z,21.4
2018-08-31T17:19:00.038Z,21.4
2018-08-31T17:20:02.194Z,21.2
2018-08-31T17:21:03.914Z,21.2
2018-08-31T17:22:05.652Z,21.1
2018-08-31T17:23:07.366Z,21.2
2018-08-31T17:24:09.679Z,21.2
2018-08-31T17:25:11.858Z,21.0
2018-08-31T17:26:14.255Z,20.9
2018-08-31T17:27:15.997Z,21.0
2018-08-31T17:28:17.692Z,20.9
2018-08-31T17:29:19.443Z,20.9
2018-08-31T17:30:21.290Z,20.9
2018-08-31T17:31:23.739Z,20.8
2018-08-31T17:32:26.052Z,20.8
2018-08-31T17:33:28.159Z,20.8
2018-08-31T17:34:30.301Z,20.8
2018-08-31T17:35:32.622Z,20.8
2018-08-31T17:36:34.811Z,20.7
2018-08-31T17:37:36.528Z,20.8
2018-08-31T17:38:38.292Z,20.7